sensor_id;sensor_type;location;lat;lon;timestamp;temperature;humidity
48007;DHT22;33771;48.180;11.400;2023-04-05T00:01:54;-1.90;99.90
48007;DHT22;33771;48.180;11.400;2023-04-05T00:04:19;-1.90;99.90
48007;DHT22;33771;48.180;11.400;2023-04-05T00:06:47;-2.00;99.90
48007;DHT22;33771;48.180;11.400;2023-04-05T00:09:18;-2.00;99.90
48007;DHT22;33771;48.180;11.400;2023-04-05T00:11:45;-2.00;99.90
48007;DHT22;33771;48.180;11.400;2023-04-05T00:14:11;-2.00;99.90
48007;DHT22;33771;48.180;11.400;2023-04-05T00:16:37;-2.10;99.90
48007;DHT22;33771;48.180;11.400;2023-04-05T00:19:03;-2.10;99.90
48007;DHT22;33771;48.180;11.400;2023-04-05T00:21:29;-2.10;99.90
48007;DHT22;33771;48.180;11.400;2023-04-05T00:23:56;-2.10;99.90
48007;DHT22;33771;48.180;11.400;2023-04-05T00:26:23;-2.10;99.90
48007;DHT22;33771;48.180;11.400;2023-04-05T00:28:50;-2.10;99.90
48007;DHT22;33771;48.180;11.400;2023-04-05T00:31:16;-2.10;99.90
48007;DHT22;33771;48.180;11.400;2023-04-05T00:33:43;-2.10;99.90
48007;DHT22;33771;48.180;11.400;2023-04-05T00:36:15;-2.20;99.90
48007;DHT22;33771;48.180;11.400;2023-04-05T00:38:43;-2.20;99.90
48007;DHT22;33771;48.180;11.400;2023-04-05T00:41:10;-2.20;99.90
48007;DHT22;33771;48.180;11.400;2023-04-05T00:43:36;-2.30;99.90
48007;DHT22;33771;48.180;11.400;2023-04-05T00:46:04;-2.20;99.90
48007;DHT22;33771;48.180;11.400;2023-04-05T00:48:32;-2.30;99.90
48007;DHT22;33771;48.180;11.400;2023-04-05T00:50:58;-2.30;99.90
48007;DHT22;33771;48.180;11.400;2023-04-05T00:53:25;-2.30;99.90
48007;DHT22;33771;48.180;11.400;2023-04-05T00:55:57;-2.30;99.90
48007;DHT22;33771;48.180;11.400;2023-04-05T00:58:25;-2.30;99.90
48007;DHT22;33771;48.180;11.400;2023-04-05T01:01:17;-2.30;99.90
48007;DHT22;33771;48.180;11.400;2023-04-05T01:03:51;-2.30;99.90
48007;DHT22;33771;48.180;11.400;2023-04-05T01:09:16;-2.30;99.90
48007;DHT22;33771;48.180;11.400;2023-04-05T01:11:48;-2.40;99.90
48007;DHT22;33771;48.180;11.400;2023-04-05T01:14:14;-2.30;99.90
48007;DHT22;33771;48.180;11.400;2023-04-05T01:16:40;-2.30;99.90
48007;DHT22;33771;48.180;11.400;2023-04-05T01:19:06;-2.30;99.90
48007;DHT22;33771;48.180;11.400;2023-04-05T01:24:28;-2.30;99.90
48007;DHT22;33771;48.180;11.400;2023-04-05T01:27:03;-2.40;99.90
48007;DHT22;33771;48.180;11.400;2023-04-05T01:32:23;-2.40;99.90
48007;DHT22;33771;48.180;11.400;2023-04-05T01:35:00;-2.40;99.90
48007;DHT22;33771;48.180;11.400;2023-04-05T01:37:30;-2.40;99.90
48007;DHT22;33771;48.180;11.400;2023-04-05T01:39:58;-2.40;99.90
48007;DHT22;33771;48.180;11.400;2023-04-05T01:42:25;-2.50;99.90
48007;DHT22;33771;48.180;11.400;2023-04-05T01:44:55;-2.50;99.90
48007;DHT22;33771;48.180;11.400;2023-04-05T01:47:21;-2.40;99.90
48007;DHT22;33771;48.180;11.400;2023-04-05T01:49:47;-2.50;99.90
48007;DHT22;33771;48.180;11.400;2023-04-05T01:52:13;-2.50;99.90
48007;DHT22;33771;48.180;11.400;2023-04-05T01:54:39;-2.50;99.90
48007;DHT22;33771;48.180;11.400;2023-04-05T01:57:05;-2.50;99.90
48007;DHT22;33771;48.180;11.400;2023-04-05T01:59:31;-2.50;99.90
48007;DHT22;33771;48.180;11.400;2023-04-05T02:01:57;-2.50;99.90
48007;DHT22;33771;48.180;11.400;2023-04-05T02:04:22;-2.50;99.90
48007;DHT22;33771;48.180;11.400;2023-04-05T02:06:48;-2.50;99.90
48007;DHT22;33771;48.180;11.400;2023-04-05T02:09:14;-2.50;99.90
48007;DHT22;33771;48.180;11.400;2023-04-05T02:11:40;-2.50;99.90
48007;DHT22;33771;48.180;11.400;2023-04-05T02:14:06;-2.50;99.90
48007;DHT22;33771;48.180;11.400;2023-04-05T02:16:32;-2.40;99.90
48007;DHT22;33771;48.180;11.400;2023-04-05T02:18:58;-2.40;99.90
48007;DHT22;33771;48.180;11.400;2023-04-05T02:21:25;-2.40;99.90
48007;DHT22;33771;48.180;11.400;2023-04-05T02:23:54;-2.40;99.90
48007;DHT22;33771;48.180;11.400;2023-04-05T02:26:20;-2.40;99.90
48007;DHT22;33771;48.180;11.400;2023-04-05T02:28:46;-2.40;99.90
48007;DHT22;33771;48.180;11.400;2023-04-05T02:31:13;-2.40;99.90
48007;DHT22;33771;48.180;11.400;2023-04-05T02:33:39;-2.40;99.90
48007;DHT22;33771;48.180;11.400;2023-04-05T02:36:10;-2.40;99.90
48007;DHT22;33771;48.180;11.400;2023-04-05T02:38:37;-2.40;99.90
48007;DHT22;33771;48.180;11.400;2023-04-05T02:41:03;-2.40;99.90
48007;DHT22;33771;48.180;11.400;2023-04-05T02:43:29;-2.40;99.90
48007;DHT22;33771;48.180;11.400;2023-04-05T02:45:57;-2.40;99.90
48007;DHT22;33771;48.180;11.400;2023-04-05T02:48:23;-2.40;99.90
48007;DHT22;33771;48.180;11.400;2023-04-05T02:51:03;-2.40;99.90
48007;DHT22;33771;48.180;11.400;2023-04-05T02:53:29;-2.40;99.90
48007;DHT22;33771;48.180;11.400;2023-04-05T02:56:01;-2.40;99.90
48007;DHT22;33771;48.180;11.400;2023-04-05T02:58:29;-2.50;99.90
48007;DHT22;33771;48.180;11.400;2023-04-05T03:00:58;-2.50;99.90
48007;DHT22;33771;48.180;11.400;2023-04-05T03:03:28;-2.50;99.90
48007;DHT22;33771;48.180;11.400;2023-04-05T03:06:00;-2.50;99.90
48007;DHT22;33771;48.180;11.400;2023-04-05T03:08:31;-2.50;99.90
48007;DHT22;33771;48.180;11.400;2023-04-05T03:11:00;-2.50;99.90
48007;DHT22;33771;48.180;11.400;2023-04-05T03:13:29;-2.50;99.90
48007;DHT22;33771;48.180;11.400;2023-04-05T03:15:54;-2.50;99.90
48007;DHT22;33771;48.180;11.400;2023-04-05T03:18:22;-2.60;99.90
48007;DHT22;33771;48.180;11.400;2023-04-05T03:20:50;-2.60;99.90
48007;DHT22;33771;48.180;11.400;2023-04-05T03:23:27;-2.60;99.90
48007;DHT22;33771;48.180;11.400;2023-04-05T03:26:02;-2.60;99.90
48007;DHT22;33771;48.180;11.400;2023-04-05T03:28:31;-2.60;99.90
48007;DHT22;33771;48.180;11.400;2023-04-05T03:31:00;-2.60;99.90
48007;DHT22;33771;48.180;11.400;2023-04-05T03:33:26;-2.60;99.90
48007;DHT22;33771;48.180;11.400;2023-04-05T03:35:54;-2.60;99.90
48007;DHT22;33771;48.180;11.400;2023-04-05T03:38:20;-2.50;99.90
48007;DHT22;33771;48.180;11.400;2023-04-05T03:40:46;-2.50;99.90
48007;DHT22;33771;48.180;11.400;2023-04-05T03:43:12;-2.50;99.90
48007;DHT22;33771;48.180;11.400;2023-04-05T03:45:38;-2.50;99.90
48007;DHT22;33771;48.180;11.400;2023-04-05T03:48:04;-2.50;99.90
48007;DHT22;33771;48.180;11.400;2023-04-05T03:50:30;-2.50;99.90
48007;DHT22;33771;48.180;11.400;2023-04-05T03:52:56;-2.50;99.90
48007;DHT22;33771;48.180;11.400;2023-04-05T03:55:22;-2.50;99.90
48007;DHT22;33771;48.180;11.400;2023-04-05T03:57:48;-2.50;99.90
48007;DHT22;33771;48.180;11.400;2023-04-05T04:00:14;-2.50;99.90
48007;DHT22;33771;48.180;11.400;2023-04-05T04:02:47;-2.50;99.90
48007;DHT22;33771;48.180;11.400;2023-04-05T04:05:14;-2.50;99.90
48007;DHT22;33771;48.180;11.400;2023-04-05T04:07:41;-2.50;99.90
48007;DHT22;33771;48.180;11.400;2023-04-05T04:10:09;-2.50;99.90
48007;DHT22;33771;48.180;11.400;2023-04-05T04:12:35;-2.60;99.90
48007;DHT22;33771;48.180;11.400;2023-04-05T04:15:02;-2.50;99.90
48007;DHT22;33771;48.180;11.400;2023-04-05T04:17:29;-2.60;99.90
48007;DHT22;33771;48.180;11.400;2023-04-05T04:19:56;-2.60;99.90
48007;DHT22;33771;48.180;11.400;2023-04-05T04:22:24;-2.60;99.90
48007;DHT22;33771;48.180;11.400;2023-04-05T04:24:58;-2.60;99.90
48007;DHT22;33771;48.180;11.400;2023-04-05T04:27:29;-2.70;99.90
48007;DHT22;33771;48.180;11.400;2023-04-05T04:29:56;-2.70;99.90
48007;DHT22;33771;48.180;11.400;2023-04-05T04:32:29;-2.70;99.90
48007;DHT22;33771;48.180;11.400;2023-04-05T04:35:13;-2.70;99.90
48007;DHT22;33771;48.180;11.400;2023-04-05T04:37:50;-2.70;99.90
48007;DHT22;33771;48.180;11.400;2023-04-05T04:40:17;-2.70;99.90
48007;DHT22;33771;48.180;11.400;2023-04-05T04:42:44;-2.70;99.90
48007;DHT22;33771;48.180;11.400;2023-04-05T04:45:17;-2.70;99.90
48007;DHT22;33771;48.180;11.400;2023-04-05T04:47:45;-2.80;99.90
48007;DHT22;33771;48.180;11.400;2023-04-05T04:50:15;-2.80;99.90
48007;DHT22;33771;48.180;11.400;2023-04-05T04:52:41;-2.80;99.90
48007;DHT22;33771;48.180;11.400;2023-04-05T04:55:08;-2.70;99.90
48007;DHT22;33771;48.180;11.400;2023-04-05T04:57:35;-2.80;99.90
48007;DHT22;33771;48.180;11.400;2023-04-05T05:00:02;-2.70;99.90
48007;DHT22;33771;48.180;11.400;2023-04-05T05:02:36;-2.70;99.90
48007;DHT22;33771;48.180;11.400;2023-04-05T05:05:03;-2.70;99.90
48007;DHT22;33771;48.180;11.400;2023-04-05T05:07:30;-2.70;99.90
48007;DHT22;33771;48.180;11.400;2023-04-05T05:09:56;-2.70;99.90
48007;DHT22;33771;48.180;11.400;2023-04-05T05:12:22;-2.70;99.90
48007;DHT22;33771;48.180;11.400;2023-04-05T05:14:48;-2.70;99.90
48007;DHT22;33771;48.180;11.400;2023-04-05T05:17:14;-2.60;99.90
48007;DHT22;33771;48.180;11.400;2023-04-05T05:19:40;-2.70;99.90
48007;DHT22;33771;48.180;11.400;2023-04-05T05:22:06;-2.60;99.90
48007;DHT22;33771;48.180;11.400;2023-04-05T05:24:32;-2.60;99.90
48007;DHT22;33771;48.180;11.400;2023-04-05T05:26:58;-2.50;99.90
48007;DHT22;33771;48.180;11.400;2023-04-05T05:29:24;-2.50;99.90
48007;DHT22;33771;48.180;11.400;2023-04-05T05:31:50;-2.30;99.90
48007;DHT22;33771;48.180;11.400;2023-04-05T05:34:17;-2.20;99.90
48007;DHT22;33771;48.180;11.400;2023-04-05T05:36:43;-2.10;99.90
48007;DHT22;33771;48.180;11.400;2023-04-05T05:39:09;-2.10;99.90
48007;DHT22;33771;48.180;11.400;2023-04-05T05:41:36;-2.00;99.90
48007;DHT22;33771;48.180;11.400;2023-04-05T05:44:02;-2.00;99.90
48007;DHT22;33771;48.180;11.400;2023-04-05T05:46:28;-1.90;99.90
48007;DHT22;33771;48.180;11.400;2023-04-05T05:48:58;-1.90;99.90
48007;DHT22;33771;48.180;11.400;2023-04-05T05:51:24;-1.80;99.90
48007;DHT22;33771;48.180;11.400;2023-04-05T05:53:50;-1.70;99.90
48007;DHT22;33771;48.180;11.400;2023-04-05T05:56:16;-1.70;99.90
48007;DHT22;33771;48.180;11.400;2023-04-05T05:58:42;-1.60;99.90
48007;DHT22;33771;48.180;11.400;2023-04-05T06:01:08;-1.50;99.90
48007;DHT22;33771;48.180;11.400;2023-04-05T06:03:37;-1.50;99.90
48007;DHT22;33771;48.180;11.400;2023-04-05T06:06:03;-1.40;99.90
48007;DHT22;33771;48.180;11.400;2023-04-05T06:08:33;-1.40;99.90
48007;DHT22;33771;48.180;11.400;2023-04-05T06:11:00;-1.30;99.90
48007;DHT22;33771;48.180;11.400;2023-04-05T06:13:27;-1.20;99.90
48007;DHT22;33771;48.180;11.400;2023-04-05T06:15:55;-1.10;99.90
48007;DHT22;33771;48.180;11.400;2023-04-05T06:18:21;-1.00;99.90
48007;DHT22;33771;48.180;11.400;2023-04-05T06:20:48;-0.90;99.90
48007;DHT22;33771;48.180;11.400;2023-04-05T06:23:14;-0.90;99.90
48007;DHT22;33771;48.180;11.400;2023-04-05T06:25:42;-0.80;99.90
48007;DHT22;33771;48.180;11.400;2023-04-05T06:28:08;-0.70;99.90
48007;DHT22;33771;48.180;11.400;2023-04-05T06:30:34;-0.60;99.90
48007;DHT22;33771;48.180;11.400;2023-04-05T06:33:01;-0.50;99.90
48007;DHT22;33771;48.180;11.400;2023-04-05T06:38:51;-0.30;99.90
48007;DHT22;33771;48.180;11.400;2023-04-05T06:41:18;-0.20;99.90
48007;DHT22;33771;48.180;11.400;2023-04-05T06:43:44;-0.10;99.90
48007;DHT22;33771;48.180;11.400;2023-04-05T06:46:10;0.00;99.90
48007;DHT22;33771;48.180;11.400;2023-04-05T06:48:38;0.10;99.90
48007;DHT22;33771;48.180;11.400;2023-04-05T06:51:04;0.20;99.90
48007;DHT22;33771;48.180;11.400;2023-04-05T06:53:30;0.20;99.90
48007;DHT22;33771;48.180;11.400;2023-04-05T06:55:59;0.40;99.90
48007;DHT22;33771;48.180;11.400;2023-04-05T06:58:26;0.50;99.90
48007;DHT22;33771;48.180;11.400;2023-04-05T07:00:53;0.60;99.90
48007;DHT22;33771;48.180;11.400;2023-04-05T07:03:19;0.70;99.90
48007;DHT22;33771;48.180;11.400;2023-04-05T07:05:58;0.80;99.90
48007;DHT22;33771;48.180;11.400;2023-04-05T07:08:25;0.80;99.90
48007;DHT22;33771;48.180;11.400;2023-04-05T07:10:52;0.90;99.90
48007;DHT22;33771;48.180;11.400;2023-04-05T07:13:19;1.00;99.90
48007;DHT22;33771;48.180;11.400;2023-04-05T07:15:46;1.10;99.90
48007;DHT22;33771;48.180;11.400;2023-04-05T07:18:12;1.20;99.90
48007;DHT22;33771;48.180;11.400;2023-04-05T07:20:41;1.30;99.90
48007;DHT22;33771;48.180;11.400;2023-04-05T07:23:08;1.40;99.90
48007;DHT22;33771;48.180;11.400;2023-04-05T07:25:33;1.50;99.90
48007;DHT22;33771;48.180;11.400;2023-04-05T07:28:00;1.50;99.90
48007;DHT22;33771;48.180;11.400;2023-04-05T07:30:26;1.60;99.90
48007;DHT22;33771;48.180;11.400;2023-04-05T07:32:53;1.70;99.90
48007;DHT22;33771;48.180;11.400;2023-04-05T07:35:19;1.80;99.90
48007;DHT22;33771;48.180;11.400;2023-04-05T07:37:45;1.90;99.90
48007;DHT22;33771;48.180;11.400;2023-04-05T07:40:11;2.00;99.90
48007;DHT22;33771;48.180;11.400;2023-04-05T07:42:38;2.00;99.90
48007;DHT22;33771;48.180;11.400;2023-04-05T07:48:26;2.30;99.90
48007;DHT22;33771;48.180;11.400;2023-04-05T07:50:53;2.40;99.90
48007;DHT22;33771;48.180;11.400;2023-04-05T07:53:19;2.40;99.90
48007;DHT22;33771;48.180;11.400;2023-04-05T07:55:45;2.40;99.90
48007;DHT22;33771;48.180;11.400;2023-04-05T07:58:11;2.50;99.90
48007;DHT22;33771;48.180;11.400;2023-04-05T08:00:37;2.60;99.90
48007;DHT22;33771;48.180;11.400;2023-04-05T08:03:04;2.70;99.90
48007;DHT22;33771;48.180;11.400;2023-04-05T08:05:30;2.80;99.90
48007;DHT22;33771;48.180;11.400;2023-04-05T08:07:56;2.90;99.90
48007;DHT22;33771;48.180;11.400;2023-04-05T08:10:23;2.90;99.90
48007;DHT22;33771;48.180;11.400;2023-04-05T08:12:49;3.00;99.90
48007;DHT22;33771;48.180;11.400;2023-04-05T08:15:15;3.00;99.90
48007;DHT22;33771;48.180;11.400;2023-04-05T08:17:41;3.00;99.90
48007;DHT22;33771;48.180;11.400;2023-04-05T08:20:07;3.00;99.90
48007;DHT22;33771;48.180;11.400;2023-04-05T08:22:33;3.00;99.90
48007;DHT22;33771;48.180;11.400;2023-04-05T08:24:59;3.00;99.90
48007;DHT22;33771;48.180;11.400;2023-04-05T08:27:25;3.00;99.90
48007;DHT22;33771;48.180;11.400;2023-04-05T08:29:54;3.00;99.90
48007;DHT22;33771;48.180;11.400;2023-04-05T08:32:20;3.00;99.90
48007;DHT22;33771;48.180;11.400;2023-04-05T08:34:46;3.00;99.90
48007;DHT22;33771;48.180;11.400;2023-04-05T08:37:12;3.20;99.90
48007;DHT22;33771;48.180;11.400;2023-04-05T08:39:38;3.30;99.90
48007;DHT22;33771;48.180;11.400;2023-04-05T08:42:18;3.40;99.90
48007;DHT22;33771;48.180;11.400;2023-04-05T08:44:50;3.50;99.90
48007;DHT22;33771;48.180;11.400;2023-04-05T08:47:22;3.60;99.90
48007;DHT22;33771;48.180;11.400;2023-04-05T08:49:48;3.60;99.90
48007;DHT22;33771;48.180;11.400;2023-04-05T08:52:15;3.80;99.90
48007;DHT22;33771;48.180;11.400;2023-04-05T08:54:41;4.00;99.90
48007;DHT22;33771;48.180;11.400;2023-04-05T08:57:07;4.00;99.90
48007;DHT22;33771;48.180;11.400;2023-04-05T08:59:37;4.20;99.90
48007;DHT22;33771;48.180;11.400;2023-04-05T09:02:11;4.20;99.90
48007;DHT22;33771;48.180;11.400;2023-04-05T09:04:41;4.30;99.90
48007;DHT22;33771;48.180;11.400;2023-04-05T09:07:12;4.40;99.90
48007;DHT22;33771;48.180;11.400;2023-04-05T09:09:39;4.50;99.90
48007;DHT22;33771;48.180;11.400;2023-04-05T09:12:07;4.70;99.90
48007;DHT22;33771;48.180;11.400;2023-04-05T09:14:33;4.80;99.90
48007;DHT22;33771;48.180;11.400;2023-04-05T09:17:01;4.80;99.90
48007;DHT22;33771;48.180;11.400;2023-04-05T09:19:28;4.70;99.90
48007;DHT22;33771;48.180;11.400;2023-04-05T09:22:04;4.90;99.90
48007;DHT22;33771;48.180;11.400;2023-04-05T09:24:33;5.10;99.90
48007;DHT22;33771;48.180;11.400;2023-04-05T09:27:10;5.30;99.90
48007;DHT22;33771;48.180;11.400;2023-04-05T09:29:41;5.20;99.90
48007;DHT22;33771;48.180;11.400;2023-04-05T09:32:08;5.00;99.90
48007;DHT22;33771;48.180;11.400;2023-04-05T09:34:37;5.00;99.90
48007;DHT22;33771;48.180;11.400;2023-04-05T09:37:23;5.20;99.90
48007;DHT22;33771;48.180;11.400;2023-04-05T09:39:50;5.40;99.90
48007;DHT22;33771;48.180;11.400;2023-04-05T09:42:19;5.70;99.90
48007;DHT22;33771;48.180;11.400;2023-04-05T09:44:59;6.00;99.90
48007;DHT22;33771;48.180;11.400;2023-04-05T09:47:28;6.20;99.90
48007;DHT22;33771;48.180;11.400;2023-04-05T09:52:41;6.80;99.90
48007;DHT22;33771;48.180;11.400;2023-04-05T09:55:07;7.10;99.90
48007;DHT22;33771;48.180;11.400;2023-04-05T09:57:40;7.30;99.90
48007;DHT22;33771;48.180;11.400;2023-04-05T10:00:18;7.20;99.90
48007;DHT22;33771;48.180;11.400;2023-04-05T10:02:45;7.10;99.90
48007;DHT22;33771;48.180;11.400;2023-04-05T10:05:16;7.20;99.90
48007;DHT22;33771;48.180;11.400;2023-04-05T10:07:43;7.20;99.90
48007;DHT22;33771;48.180;11.400;2023-04-05T10:10:10;7.10;99.90
48007;DHT22;33771;48.180;11.400;2023-04-05T10:12:40;7.10;99.90
48007;DHT22;33771;48.180;11.400;2023-04-05T10:15:10;7.20;99.90
48007;DHT22;33771;48.180;11.400;2023-04-05T10:20:17;7.20;99.80
48007;DHT22;33771;48.180;11.400;2023-04-05T10:23:06;7.20;99.40
48007;DHT22;33771;48.180;11.400;2023-04-05T10:31:34;7.00;99.50
48007;DHT22;33771;48.180;11.400;2023-04-05T10:34:05;7.10;99.90
48007;DHT22;33771;48.180;11.400;2023-04-05T10:36:50;7.50;98.90
48007;DHT22;33771;48.180;11.400;2023-04-05T10:39:29;7.60;95.90
48007;DHT22;33771;48.180;11.400;2023-04-05T10:42:06;8.00;96.90
48007;DHT22;33771;48.180;11.400;2023-04-05T10:44:36;8.10;94.60
48007;DHT22;33771;48.180;11.400;2023-04-05T10:47:04;8.30;94.50
48007;DHT22;33771;48.180;11.400;2023-04-05T10:49:46;8.30;93.80
48007;DHT22;33771;48.180;11.400;2023-04-05T10:52:14;8.50;95.70
48007;DHT22;33771;48.180;11.400;2023-04-05T10:54:42;8.60;94.70
48007;DHT22;33771;48.180;11.400;2023-04-05T10:57:09;8.60;95.80
48007;DHT22;33771;48.180;11.400;2023-04-05T10:59:44;8.40;94.00
48007;DHT22;33771;48.180;11.400;2023-04-05T11:02:11;8.20;95.00
48007;DHT22;33771;48.180;11.400;2023-04-05T11:04:39;7.90;96.00
48007;DHT22;33771;48.180;11.400;2023-04-05T11:07:16;8.10;95.30
48007;DHT22;33771;48.180;11.400;2023-04-05T11:09:59;8.20;97.20
48007;DHT22;33771;48.180;11.400;2023-04-05T11:18:04;9.00;92.80
48007;DHT22;33771;48.180;11.400;2023-04-05T11:20:49;9.00;92.80
48007;DHT22;33771;48.180;11.400;2023-04-05T11:23:21;9.00;91.00
48007;DHT22;33771;48.180;11.400;2023-04-05T11:25:51;8.80;93.00
48007;DHT22;33771;48.180;11.400;2023-04-05T11:29:06;8.60;92.10
48007;DHT22;33771;48.180;11.400;2023-04-05T11:31:20;8.40;91.90
48007;DHT22;33771;48.180;11.400;2023-04-05T11:33:54;8.10;92.00
48007;DHT22;33771;48.180;11.400;2023-04-05T11:36:42;8.00;93.00
48007;DHT22;33771;48.180;11.400;2023-04-05T11:41:55;8.30;92.30
48007;DHT22;33771;48.180;11.400;2023-04-05T11:44:22;8.70;92.60
48007;DHT22;33771;48.180;11.400;2023-04-05T11:46:52;8.90;92.70
48007;DHT22;33771;48.180;11.400;2023-04-05T11:49:23;9.20;90.90
48007;DHT22;33771;48.180;11.400;2023-04-05T11:52:08;9.70;89.00
48007;DHT22;33771;48.180;11.400;2023-04-05T11:54:34;9.90;90.60
48007;DHT22;33771;48.180;11.400;2023-04-05T11:57:01;10.00;90.70
48007;DHT22;33771;48.180;11.400;2023-04-05T11:59:37;9.50;89.10
48007;DHT22;33771;48.180;11.400;2023-04-05T12:02:04;9.40;91.50
48007;DHT22;33771;48.180;11.400;2023-04-05T12:04:33;9.30;91.30
48007;DHT22;33771;48.180;11.400;2023-04-05T12:07:18;9.30;90.30
48007;DHT22;33771;48.180;11.400;2023-04-05T12:09:57;9.30;92.70
48007;DHT22;33771;48.180;11.400;2023-04-05T12:12:23;9.40;91.00
48007;DHT22;33771;48.180;11.400;2023-04-05T12:14:49;9.50;90.60
48007;DHT22;33771;48.180;11.400;2023-04-05T12:17:15;9.50;91.90
48007;DHT22;33771;48.180;11.400;2023-04-05T12:19:42;9.50;92.00
48007;DHT22;33771;48.180;11.400;2023-04-05T12:22:08;9.60;92.10
48007;DHT22;33771;48.180;11.400;2023-04-05T12:24:34;9.60;90.90
48007;DHT22;33771;48.180;11.400;2023-04-05T12:27:00;9.50;92.60
48007;DHT22;33771;48.180;11.400;2023-04-05T12:29:27;9.50;92.40
48007;DHT22;33771;48.180;11.400;2023-04-05T12:31:54;9.70;91.80
48007;DHT22;33771;48.180;11.400;2023-04-05T12:34:24;9.70;89.70
48007;DHT22;33771;48.180;11.400;2023-04-05T12:36:50;9.90;89.60
48007;DHT22;33771;48.180;11.400;2023-04-05T12:39:17;9.90;90.60
48007;DHT22;33771;48.180;11.400;2023-04-05T12:41:43;10.10;87.00
48007;DHT22;33771;48.180;11.400;2023-04-05T12:44:37;10.00;89.90
48007;DHT22;33771;48.180;11.400;2023-04-05T12:47:03;10.20;90.50
48007;DHT22;33771;48.180;11.400;2023-04-05T12:49:39;10.20;89.70
48007;DHT22;33771;48.180;11.400;2023-04-05T12:52:05;10.00;88.70
48007;DHT22;33771;48.180;11.400;2023-04-05T12:54:33;9.90;86.00
48007;DHT22;33771;48.180;11.400;2023-04-05T12:57:03;9.80;88.00
48007;DHT22;33771;48.180;11.400;2023-04-05T12:59:34;9.90;91.90
48007;DHT22;33771;48.180;11.400;2023-04-05T13:02:04;10.20;90.90
48007;DHT22;33771;48.180;11.400;2023-04-05T13:04:31;10.40;91.00
48007;DHT22;33771;48.180;11.400;2023-04-05T13:07:03;10.40;87.80
48007;DHT22;33771;48.180;11.400;2023-04-05T13:09:32;10.20;90.30
48007;DHT22;33771;48.180;11.400;2023-04-05T13:12:02;10.20;88.00
48007;DHT22;33771;48.180;11.400;2023-04-05T13:14:29;10.20;84.30
48007;DHT22;33771;48.180;11.400;2023-04-05T13:16:55;10.00;89.90
48007;DHT22;33771;48.180;11.400;2023-04-05T13:19:22;10.20;84.80
48007;DHT22;33771;48.180;11.400;2023-04-05T13:21:48;10.20;84.40
48007;DHT22;33771;48.180;11.400;2023-04-05T13:24:14;10.30;85.60
48007;DHT22;33771;48.180;11.400;2023-04-05T13:26:40;10.30;87.80
48007;DHT22;33771;48.180;11.400;2023-04-05T13:29:06;10.20;90.10
48007;DHT22;33771;48.180;11.400;2023-04-05T13:31:32;10.20;85.90
48007;DHT22;33771;48.180;11.400;2023-04-05T13:33:58;10.10;86.80
48007;DHT22;33771;48.180;11.400;2023-04-05T13:36:24;10.30;86.70
48007;DHT22;33771;48.180;11.400;2023-04-05T13:38:51;10.30;84.80
48007;DHT22;33771;48.180;11.400;2023-04-05T13:41:17;10.40;84.50
48007;DHT22;33771;48.180;11.400;2023-04-05T13:43:42;10.20;84.80
48007;DHT22;33771;48.180;11.400;2023-04-05T13:46:08;10.20;84.90
48007;DHT22;33771;48.180;11.400;2023-04-05T13:48:35;10.30;82.50
48007;DHT22;33771;48.180;11.400;2023-04-05T13:51:01;10.30;83.30
48007;DHT22;33771;48.180;11.400;2023-04-05T13:53:27;10.30;85.70
48007;DHT22;33771;48.180;11.400;2023-04-05T13:55:53;10.20;83.20
48007;DHT22;33771;48.180;11.400;2023-04-05T13:58:19;10.20;84.40
48007;DHT22;33771;48.180;11.400;2023-04-05T14:00:44;10.00;84.00
48007;DHT22;33771;48.180;11.400;2023-04-05T14:03:10;9.80;87.70
48007;DHT22;33771;48.180;11.400;2023-04-05T14:09:01;9.90;82.20
48007;DHT22;33771;48.180;11.400;2023-04-05T14:11:27;9.70;83.90
48007;DHT22;33771;48.180;11.400;2023-04-05T14:13:53;9.80;82.30
48007;DHT22;33771;48.180;11.400;2023-04-05T14:16:20;9.80;83.40
48007;DHT22;33771;48.180;11.400;2023-04-05T14:18:46;9.70;85.50
48007;DHT22;33771;48.180;11.400;2023-04-05T14:21:13;9.50;83.30
48007;DHT22;33771;48.180;11.400;2023-04-05T14:23:39;9.40;83.70
48007;DHT22;33771;48.180;11.400;2023-04-05T14:26:05;9.30;84.60
48007;DHT22;33771;48.180;11.400;2023-04-05T14:28:31;9.20;88.50
48007;DHT22;33771;48.180;11.400;2023-04-05T14:30:58;9.20;90.20
48007;DHT22;33771;48.180;11.400;2023-04-05T14:33:24;9.20;89.00
48007;DHT22;33771;48.180;11.400;2023-04-05T14:35:54;9.50;83.30
48007;DHT22;33771;48.180;11.400;2023-04-05T14:38:20;9.40;83.30
48007;DHT22;33771;48.180;11.400;2023-04-05T14:40:46;9.20;83.90
48007;DHT22;33771;48.180;11.400;2023-04-05T14:43:12;9.10;84.00
48007;DHT22;33771;48.180;11.400;2023-04-05T14:49:00;9.20;83.70
48007;DHT22;33771;48.180;11.400;2023-04-05T14:51:26;9.10;87.70
48007;DHT22;33771;48.180;11.400;2023-04-05T14:53:52;9.00;86.90
48007;DHT22;33771;48.180;11.400;2023-04-05T14:56:19;9.00;87.10
48007;DHT22;33771;48.180;11.400;2023-04-05T14:58:47;9.00;87.50
48007;DHT22;33771;48.180;11.400;2023-04-05T15:01:14;9.10;84.70
48007;DHT22;33771;48.180;11.400;2023-04-05T15:03:40;8.90;86.70
48007;DHT22;33771;48.180;11.400;2023-04-05T15:06:06;8.80;87.20
48007;DHT22;33771;48.180;11.400;2023-04-05T15:08:32;8.80;89.50
48007;DHT22;33771;48.180;11.400;2023-04-05T15:10:59;8.70;89.60
48007;DHT22;33771;48.180;11.400;2023-04-05T15:13:25;8.60;88.40
48007;DHT22;33771;48.180;11.400;2023-04-05T15:15:52;8.60;90.10
48007;DHT22;33771;48.180;11.400;2023-04-05T15:18:18;8.60;90.10
48007;DHT22;33771;48.180;11.400;2023-04-05T15:20:44;8.50;90.30
48007;DHT22;33771;48.180;11.400;2023-04-05T15:23:10;8.40;90.80
48007;DHT22;33771;48.180;11.400;2023-04-05T15:25:36;8.40;87.70
48007;DHT22;33771;48.180;11.400;2023-04-05T15:28:02;8.30;89.80
48007;DHT22;33771;48.180;11.400;2023-04-05T15:30:30;8.20;90.20
48007;DHT22;33771;48.180;11.400;2023-04-05T15:32:56;8.10;90.00
48007;DHT22;33771;48.180;11.400;2023-04-05T15:35:22;8.10;90.40
48007;DHT22;33771;48.180;11.400;2023-04-05T15:37:48;8.10;90.00
48007;DHT22;33771;48.180;11.400;2023-04-05T15:40:14;8.00;90.10
48007;DHT22;33771;48.180;11.400;2023-04-05T15:42:40;8.10;89.40
48007;DHT22;33771;48.180;11.400;2023-04-05T15:45:07;8.00;89.50
48007;DHT22;33771;48.180;11.400;2023-04-05T15:47:33;7.90;90.20
48007;DHT22;33771;48.180;11.400;2023-04-05T15:49:59;7.90;87.30
48007;DHT22;33771;48.180;11.400;2023-04-05T15:52:25;7.80;90.50
48007;DHT22;33771;48.180;11.400;2023-04-05T15:54:51;7.70;90.30
48007;DHT22;33771;48.180;11.400;2023-04-05T15:57:17;7.80;90.30
48007;DHT22;33771;48.180;11.400;2023-04-05T15:59:44;7.80;89.30
48007;DHT22;33771;48.180;11.400;2023-04-05T16:02:10;7.80;87.80
48007;DHT22;33771;48.180;11.400;2023-04-05T16:04:38;7.70;88.50
48007;DHT22;33771;48.180;11.400;2023-04-05T16:07:04;7.60;89.00
48007;DHT22;33771;48.180;11.400;2023-04-05T16:09:32;7.60;90.30
48007;DHT22;33771;48.180;11.400;2023-04-05T16:11:58;7.60;91.30